CheckWX is a tool to help pilots better visualize weather data.  It is not intended as a substitute for an official pre-flight weather briefing.

12:25:07 UTC

KHYA METAR
Barnstable Municipal-Boardman / Polando Field Airport
Hyannis, Massachusetts, USA
Current

29 mins ago

KHYA 161156Z 00000KT 10SM CLR 07/05 A3006 RMK AO2 SLP181 T00670050 10067 20039 58006
Observed
Oct-16 @ 11:56 UTC
Visibility
10 SM
Flight Rules
VFR
Cloud Levels
  • Clear skies
Temperature
C / 45°F
Dewpoint
C / 41°F
Humidity
87%
Altimeter
30.06" Hg
Pressure
1017.92 hPa
Previous

1 hour ago

KHYA 161056Z 00000KT 10SM CLR 04/02 A3007 RMK AO2 SLP183 T00390022
Observed
Oct-16 @ 10:56 UTC
Visibility
10 SM
Flight Rules
VFR
Cloud Levels
  • Clear skies
Temperature
C / 39°F
Dewpoint
C / 36°F
Humidity
87%
Altimeter
30.07" Hg
Pressure
1018.32 hPa
Previous

2 hours ago

KHYA 160956Z 00000KT 10SM CLR 05/03 A3008 RMK AO2 SLP187 T00500033
Observed
Oct-16 @ 09:56 UTC
Visibility
10 SM
Flight Rules
VFR
Cloud Levels
  • Clear skies
Temperature
C / 41°F
Dewpoint
C / 37°F
Humidity
87%
Altimeter
30.08" Hg
Pressure
1018.62 hPa